Time;durP1;ratioP1;P1;durP2;ratioP2;P2;SDS_P1;SDS_P2;PMS_P1;PMS_P2;Temp;Humidity;BMP_temperature;BMP_pressure;BME280_temperature;BME280_humidity;BME280_pressure;Samples;Min_cycle;Max_cycle;Signal;HPM_P1;HPM_P2
2021/07/20 00:02:09;;;;;;;7.80;6.77;;;16.80;1.00;;;;;;4947791;28;20456;-76
2021/07/20 00:04:36;;;;;;;6.73;6.00;;;16.80;1.00;;;;;;4942121;28;20613;-76
2021/07/20 00:07:03;;;;;;;7.47;5.93;;;16.90;1.00;;;;;;4943918;28;20489;-77
2021/07/20 00:09:29;;;;;;;6.97;5.00;;;16.90;1.00;;;;;;4941188;28;21017;-76
2021/07/20 00:11:56;;;;;;;5.63;4.83;;;17.00;1.00;;;;;;4940953;28;20462;-77
2021/07/20 00:14:22;;;;;;;6.13;5.37;;;17.00;1.00;;;;;;4940543;28;20932;-76
2021/07/20 00:16:50;;;;;;;5.63;5.00;;;17.10;1.00;;;;;;4942449;28;20471;-77
2021/07/20 00:19:17;;;;;;;6.47;4.50;;;17.20;1.00;;;;;;4943197;28;20911;-76
2021/07/20 00:21:43;;;;;;;10.20;5.57;;;17.30;1.00;;;;;;4928498;28;20463;-76
2021/07/20 00:24:12;;;;;;;8.10;5.50;;;17.40;1.00;;;;;;4944859;28;21249;-77
2021/07/20 00:26:40;;;;;;;7.40;5.53;;;17.40;1.00;;;;;;4943305;28;20468;-76
2021/07/20 00:29:07;;;;;;;7.13;5.50;;;17.50;1.00;;;;;;4942901;28;20613;-76
2021/07/20 00:31:33;;;;;;;5.23;4.60;;;17.50;1.00;;;;;;4944340;28;20539;-76
2021/07/20 00:34:01;;;;;;;7.53;5.30;;;17.50;1.00;;;;;;4942498;28;20467;-76
2021/07/20 00:36:28;;;;;;;6.50;5.10;;;17.60;1.00;;;;;;4945709;28;20440;-77
2021/07/20 00:38:55;;;;;;;6.83;5.23;;;17.60;1.00;;;;;;4946298;28;20462;-76
2021/07/20 00:41:22;;;;;;;7.43;5.90;;;17.70;1.00;;;;;;4946797;28;20443;-76
2021/07/20 00:43:48;;;;;;;7.07;5.13;;;17.70;1.00;;;;;;4951195;28;20463;-76
2021/07/20 00:46:15;;;;;;;6.30;5.10;;;17.80;1.00;;;;;;4946489;28;20980;-77
2021/07/20 00:48:41;;;;;;;7.20;5.80;;;17.70;1.00;;;;;;4946238;28;20467;-75
2021/07/20 00:51:09;;;;;;;6.43;5.30;;;17.80;1.00;;;;;;4943262;28;20617;-75
2021/07/20 00:53:37;;;;;;;5.60;5.10;;;17.80;1.00;;;;;;4944504;28;20545;-75
2021/07/20 00:56:04;;;;;;;7.13;5.17;;;17.80;1.00;;;;;;4943225;28;20450;-75
2021/07/20 00:58:31;;;;;;;6.50;5.40;;;17.80;1.00;;;;;;4945913;28;20462;-75
2021/07/20 01:00:58;;;;;;;8.27;5.90;;;17.80;1.00;;;;;;4946885;28;20965;-75
2021/07/20 01:03:25;;;;;;;7.60;6.23;;;17.90;1.00;;;;;;4945350;28;20522;-75
2021/07/20 01:05:53;;;;;;;6.10;4.87;;;17.90;1.00;;;;;;4948572;28;20942;-75
2021/07/20 01:08:22;;;;;;;5.73;4.60;;;17.90;1.00;;;;;;4945042;28;21190;-75
2021/07/20 01:10:50;;;;;;;6.00;4.77;;;17.90;1.00;;;;;;4942884;28;20561;-75
2021/07/20 01:13:18;;;;;;;7.23;5.30;;;17.90;1.00;;;;;;4952434;28;20482;-74
2021/07/20 01:15:46;;;;;;;6.10;4.77;;;17.90;1.00;;;;;;4947130;28;20458;-75
2021/07/20 01:18:13;;;;;;;5.20;4.40;;;17.90;1.00;;;;;;4948959;28;20842;-75
2021/07/20 01:20:40;;;;;;;5.10;4.40;;;17.90;1.00;;;;;;4946529;28;20586;-74
2021/07/20 01:23:16;;;;;;;4.97;4.33;;;17.90;1.00;;;;;;4942938;28;20467;-75
2021/07/20 01:25:45;;;;;;;5.40;4.80;;;17.90;1.00;;;;;;4944035;28;20462;-75
2021/07/20 01:28:17;;;;;;;5.40;4.23;;;17.90;1.00;;;;;;4946385;28;20448;-75
2021/07/20 01:30:47;;;;;;;4.87;3.90;;;18.00;1.00;;;;;;4947505;28;20467;-75
2021/07/20 01:33:16;;;;;;;5.50;4.40;;;18.00;1.00;;;;;;4947210;28;20460;-75
2021/07/20 01:35:45;;;;;;;6.33;5.00;;;18.00;1.00;;;;;;4949761;28;20535;-74
2021/07/20 01:38:12;;;;;;;5.83;4.10;;;18.00;1.00;;;;;;4944285;28;20446;-75
2021/07/20 01:40:40;;;;;;;8.60;4.67;;;18.00;1.00;;;;;;4950531;28;21024;-74
2021/07/20 01:43:11;;;;;;;5.97;4.70;;;18.00;1.00;;;;;;4947812;28;20591;-74
2021/07/20 01:45:39;;;;;;;5.07;4.23;;;18.00;1.00;;;;;;4947532;28;20444;-74
2021/07/20 01:48:08;;;;;;;5.57;3.80;;;18.10;1.00;;;;;;4946776;28;20471;-74
2021/07/20 01:50:36;;;;;;;5.50;4.10;;;18.10;1.00;;;;;;4950429;28;20459;-74
2021/07/20 01:53:03;;;;;;;6.00;3.80;;;18.10;1.00;;;;;;4947493;28;20538;-75
2021/07/20 01:55:30;;;;;;;5.13;4.43;;;18.10;1.00;;;;;;4946441;28;20443;-75
2021/07/20 01:57:57;;;;;;;4.63;3.53;;;18.10;1.00;;;;;;4947349;28;20502;-75
2021/07/20 02:00:25;;;;;;;8.60;4.37;;;18.10;1.00;;;;;;4950563;28;20448;-75
2021/07/20 02:03:09;;;;;;;5.17;4.03;;;18.10;1.00;;;;;;4946216;28;21058;-74
2021/07/20 02:08:27;;;;;;;4.30;3.90;;;18.10;1.00;;;;;;4949666;28;20543;-75
2021/07/20 02:10:57;;;;;;;5.83;4.40;;;18.10;1.00;;;;;;4951414;28;21352;-75
2021/07/20 02:13:26;;;;;;;4.00;3.70;;;18.10;1.00;;;;;;4945803;28;20460;-75
2021/07/20 02:15:56;;;;;;;6.23;3.30;;;18.20;1.00;;;;;;4947513;28;20516;-75
2021/07/20 02:18:27;;;;;;;6.70;4.00;;;18.10;1.00;;;;;;4948822;28;20463;-74
2021/07/20 02:20:56;;;;;;;4.17;3.73;;;18.10;1.00;;;;;;4948351;28;21742;-75
2021/07/20 02:23:24;;;;;;;6.47;4.10;;;18.10;1.00;;;;;;4949855;28;20467;-75
2021/07/20 02:25:51;;;;;;;7.03;4.57;;;18.10;1.00;;;;;;4948149;28;20443;-75
2021/07/20 02:28:20;;;;;;;4.40;4.00;;;18.20;1.00;;;;;;4952098;28;21356;-75
2021/07/20 02:30:50;;;;;;;4.40;3.80;;;18.20;1.00;;;;;;4944912;28;20464;-75
2021/07/20 02:33:21;;;;;;;7.03;4.33;;;18.20;1.00;;;;;;4947581;28;20522;-75
2021/07/20 02:35:49;;;;;;;4.00;3.57;;;18.20;1.00;;;;;;4946195;28;20560;-75
2021/07/20 02:38:17;;;;;;;5.43;4.90;;;18.10;1.00;;;;;;4945704;28;21577;-75
2021/07/20 02:40:44;;;;;;;4.80;4.30;;;18.10;1.00;;;;;;4948212;28;20483;-75
2021/07/20 02:43:11;;;;;;;9.43;5.27;;;18.10;1.00;;;;;;4945355;28;20471;-75
2021/07/20 02:45:38;;;;;;;4.40;4.00;;;18.10;1.00;;;;;;4950565;28;21589;-75
2021/07/20 02:48:06;;;;;;;6.50;4.03;;;18.10;1.00;;;;;;4950394;28;21291;-75
2021/07/20 02:50:35;;;;;;;12.00;5.13;;;18.00;1.00;;;;;;4946193;28;20468;-76
2021/07/20 02:53:02;;;;;;;4.80;4.13;;;18.00;1.00;;;;;;4949587;28;20476;-76
2021/07/20 02:55:31;;;;;;;6.20;4.33;;;18.00;1.00;;;;;;4946497;28;20934;-76
2021/07/20 02:58:00;;;;;;;7.57;4.60;;;18.00;1.00;;;;;;4948558;28;20461;-76
2021/07/20 03:00:28;;;;;;;5.83;4.30;;;18.00;1.00;;;;;;4948144;28;21742;-76
2021/07/20 03:02:55;;;;;;;4.30;3.90;;;18.00;1.00;;;;;;4951427;28;20468;-75
2021/07/20 03:05:22;;;;;;;5.07;4.00;;;18.00;1.00;;;;;;4952142;28;20450;-75
2021/07/20 03:07:54;;;;;;;5.53;4.30;;;18.00;1.00;;;;;;4951391;28;20470;-75
2021/07/20 03:10:22;;;;;;;8.87;4.40;;;18.00;1.00;;;;;;4958655;28;20583;-76
2021/07/20 03:12:52;;;;;;;4.83;4.27;;;18.00;1.00;;;;;;4949386;28;20463;-76
2021/07/20 03:15:19;;;;;;;6.33;4.40;;;18.00;1.00;;;;;;4951150;28;20859;-76
2021/07/20 03:17:47;;;;;;;7.07;3.93;;;18.00;1.00;;;;;;4951415;28;20448;-74
2021/07/20 03:20:15;;;;;;;4.67;4.00;;;17.90;1.00;;;;;;4954435;28;22622;-75
2021/07/20 03:22:44;;;;;;;5.40;3.70;;;18.00;1.00;;;;;;4948842;28;21033;-74
2021/07/20 03:25:14;;;;;;;4.60;4.10;;;17.90;1.00;;;;;;4948793;28;20542;-74
2021/07/20 03:27:43;;;;;;;5.03;3.90;;;17.90;1.00;;;;;;4963016;28;20454;-74
2021/07/20 03:30:12;;;;;;;5.57;4.20;;;17.90;1.00;;;;;;4952672;28;21360;-75
2021/07/20 03:32:44;;;;;;;9.23;6.70;;;17.90;1.00;;;;;;4958438;28;20459;-75
2021/07/20 03:35:13;;;;;;;7.70;4.60;;;17.90;1.00;;;;;;4952360;28;20469;-75
2021/07/20 03:37:40;;;;;;;5.50;3.73;;;17.90;1.00;;;;;;4949603;28;20451;-76
2021/07/20 03:40:09;;;;;;;5.10;4.03;;;17.90;1.00;;;;;;4950402;28;20455;-75
2021/07/20 03:42:38;;;;;;;4.80;4.00;;;17.90;1.00;;;;;;4949939;28;21266;-74
2021/07/20 03:45:07;;;;;;;5.67;4.03;;;17.90;1.00;;;;;;4952691;28;20447;-75
2021/07/20 03:47:35;;;;;;;7.87;4.03;;;17.80;1.00;;;;;;4950343;28;20465;-75
2021/07/20 03:50:04;;;;;;;5.80;3.87;;;17.80;1.00;;;;;;4954836;28;21289;-75
2021/07/20 03:52:32;;;;;;;5.97;4.30;;;17.70;1.00;;;;;;4949850;28;20496;-76
2021/07/20 03:55:00;;;;;;;5.33;4.83;;;17.80;1.00;;;;;;4952083;28;21004;-75
2021/07/20 03:57:28;;;;;;;6.90;4.07;;;17.80;1.00;;;;;;4951270;28;20458;-75
2021/07/20 04:00:00;;;;;;;4.77;4.30;;;17.80;1.00;;;;;;4951062;28;20455;-75
2021/07/20 04:02:30;;;;;;;4.60;3.67;;;17.80;1.00;;;;;;4952978;28;20652;-74
2021/07/20 04:04:59;;;;;;;8.40;5.00;;;17.70;1.00;;;;;;4950956;28;20490;-75
2021/07/20 04:07:25;;;;;;;6.30;4.50;;;17.80;1.00;;;;;;4951572;28;20448;-74
2021/07/20 04:09:52;;;;;;;5.90;3.70;;;17.80;1.00;;;;;;4947497;28;20467;-74
2021/07/20 04:12:19;;;;;;;7.47;4.30;;;17.90;1.00;;;;;;4939648;28;20463;-75
2021/07/20 04:14:47;;;;;;;7.23;5.00;;;17.90;1.00;;;;;;4954545;28;20431;-75
2021/07/20 04:17:16;;;;;;;7.77;5.17;;;17.90;1.00;;;;;;4951188;28;20471;-75
2021/07/20 04:19:43;;;;;;;6.83;5.00;;;17.90;1.00;;;;;;4951821;28;20455;-75
2021/07/20 04:22:11;;;;;;;7.20;5.00;;;17.90;1.00;;;;;;4948460;28;21005;-75
2021/07/20 04:24:39;;;;;;;11.70;5.23;;;17.90;1.00;;;;;;4949542;28;20475;-76
2021/07/20 04:27:06;;;;;;;9.30;6.10;;;18.00;1.00;;;;;;4951106;28;21022;-74
2021/07/20 04:29:33;;;;;;;5.03;3.80;;;18.00;1.00;;;;;;4949596;28;20463;-77
2021/07/20 04:32:03;;;;;;;5.90;4.73;;;18.00;1.00;;;;;;4950973;28;20464;-74
2021/07/20 04:34:33;;;;;;;7.30;4.47;;;18.10;1.00;;;;;;4951529;28;20472;-76
2021/07/20 04:37:01;;;;;;;4.83;4.37;;;18.20;1.00;;;;;;4949922;28;20500;-75
2021/07/20 04:39:29;;;;;;;7.47;5.10;;;18.20;1.00;;;;;;4949360;28;20471;-76
2021/07/20 04:41:55;;;;;;;6.53;4.60;;;18.30;1.00;;;;;;4952437;28;20459;-75
2021/07/20 04:44:22;;;;;;;5.60;4.80;;;18.20;1.00;;;;;;4953994;28;20460;-75
2021/07/20 04:46:49;;;;;;;6.90;4.53;;;18.30;1.00;;;;;;4951508;28;20561;-76
2021/07/20 04:49:16;;;;;;;4.93;3.67;;;18.30;1.00;;;;;;4954992;28;20557;-76
2021/07/20 04:51:45;;;;;;;5.30;4.20;;;18.30;1.00;;;;;;4950059;28;20463;-76
2021/07/20 04:54:14;;;;;;;5.80;4.93;;;18.30;1.00;;;;;;4952177;28;20447;-76
2021/07/20 04:56:41;;;;;;;6.43;4.63;;;18.30;1.00;;;;;;4950252;28;20447;-76
2021/07/20 04:59:10;;;;;;;6.00;4.00;;;18.30;1.00;;;;;;4955391;28;20586;-76
2021/07/20 05:01:38;;;;;;;8.40;5.27;;;18.40;1.00;;;;;;4948824;28;20459;-76
2021/07/20 05:04:05;;;;;;;7.00;5.37;;;18.50;1.00;;;;;;4946977;28;21635;-75
2021/07/20 05:06:33;;;;;;;6.93;4.93;;;18.50;1.00;;;;;;4951151;28;20454;-76
2021/07/20 05:09:02;;;;;;;5.97;4.40;;;18.50;1.00;;;;;;4947343;28;20445;-75
2021/07/20 05:11:29;;;;;;;6.20;5.30;;;18.60;1.00;;;;;;4949633;28;20470;-76
2021/07/20 05:13:56;;;;;;;5.00;4.50;;;18.60;1.00;;;;;;4947524;28;20432;-75
2021/07/20 05:16:23;;;;;;;5.23;4.73;;;18.60;1.00;;;;;;4950845;28;21202;-76
2021/07/20 05:18:50;;;;;;;7.87;4.53;;;18.70;1.00;;;;;;4950698;28;20468;-76
2021/07/20 05:21:18;;;;;;;5.23;4.70;;;18.70;1.00;;;;;;4932937;28;20477;-79
2021/07/20 05:23:45;;;;;;;9.50;5.60;;;18.80;1.00;;;;;;4959601;28;20521;-78
2021/07/20 05:26:14;;;;;;;7.00;5.43;;;18.90;1.00;;;;;;4952032;28;20456;-79
2021/07/20 05:28:41;;;;;;;4.80;4.30;;;18.90;1.00;;;;;;4967742;28;20680;-79
2021/07/20 05:31:10;;;;;;;6.70;4.43;;;19.00;1.00;;;;;;4961849;28;20463;-81
2021/07/20 05:33:37;;;;;;;6.73;5.43;;;19.00;1.00;;;;;;4967081;28;20596;-80
2021/07/20 05:36:05;;;;;;;6.83;4.80;;;19.00;1.00;;;;;;4965628;28;20617;-80
2021/07/20 05:38:33;;;;;;;6.83;5.70;;;19.10;1.00;;;;;;4966174;28;20420;-79
2021/07/20 05:41:01;;;;;;;6.63;5.20;;;19.10;1.00;;;;;;4969193;28;20417;-85
2021/07/20 05:43:32;;;;;;;6.50;5.17;;;19.10;1.00;;;;;;4956683;28;20743;-84
2021/07/20 05:46:02;;;;;;;11.50;6.30;;;19.20;1.00;;;;;;4966432;28;20728;-83
2021/07/20 05:48:28;;;;;;;6.80;4.60;;;19.20;1.00;;;;;;4971669;28;20448;-83
2021/07/20 05:50:58;;;;;;;6.53;4.43;;;19.30;1.00;;;;;;4944799;28;20542;-83
2021/07/20 05:53:28;;;;;;;9.57;6.70;;;19.30;1.00;;;;;;4967564;28;20428;-82
2021/07/20 05:55:59;;;;;;;5.90;4.33;;;19.40;1.00;;;;;;4965935;28;21321;-82
2021/07/20 05:58:26;;;;;;;7.67;4.87;;;19.40;1.00;;;;;;4961856;28;20453;-83
2021/07/20 06:00:56;;;;;;;7.17;5.30;;;19.40;1.00;;;;;;4969133;28;20460;-84
2021/07/20 06:03:25;;;;;;;8.93;4.97;;;19.50;1.00;;;;;;4967185;28;20432;-83
2021/07/20 06:05:54;;;;;;;6.37;5.77;;;19.60;1.00;;;;;;4968454;28;20432;-82
2021/07/20 06:08:23;;;;;;;7.07;5.20;;;19.70;1.00;;;;;;4960483;28;20457;-82
2021/07/20 06:10:52;;;;;;;8.03;5.70;;;19.60;1.00;;;;;;4964940;28;21163;-82
2021/07/20 06:13:21;;;;;;;6.37;5.27;;;19.70;1.00;;;;;;4963008;28;20413;-80
2021/07/20 06:15:49;;;;;;;9.20;5.27;;;19.70;1.00;;;;;;4963470;28;22952;-83
2021/07/20 06:18:17;;;;;;;9.80;6.07;;;19.70;1.00;;;;;;4966505;28;20472;-80
2021/07/20 06:20:51;;;;;;;5.90;4.50;;;19.70;1.00;;;;;;4964144;28;20435;-83
2021/07/20 06:23:19;;;;;;;7.20;5.97;;;19.60;1.00;;;;;;4964714;28;20448;-83
2021/07/20 06:25:47;;;;;;;7.10;4.80;;;19.60;1.00;;;;;;4965483;28;23633;-81
2021/07/20 06:28:16;;;;;;;6.60;5.60;;;19.40;1.00;;;;;;4967479;28;20835;-82
2021/07/20 06:30:45;;;;;;;8.83;5.93;;;19.30;1.00;;;;;;4947127;28;20530;-82
2021/07/20 06:33:13;;;;;;;8.93;5.30;;;19.20;1.00;;;;;;4966802;28;20474;-82
2021/07/20 06:35:42;;;;;;;11.67;5.70;;;19.20;1.00;;;;;;4963110;28;20528;-80
2021/07/20 06:38:13;;;;;;;6.40;4.67;;;19.20;1.00;;;;;;4941097;28;20481;-81
2021/07/20 06:40:39;;;;;;;7.80;4.73;;;19.20;1.00;;;;;;4958213;28;20482;-79
2021/07/20 06:43:06;;;;;;;8.33;5.20;;;19.20;1.00;;;;;;4952865;28;20428;-79
2021/07/20 06:45:36;;;;;;;8.57;4.97;;;19.20;1.00;;;;;;4965298;28;20471;-79
2021/07/20 06:48:03;;;;;;;5.23;4.53;;;19.30;1.00;;;;;;4956406;28;20423;-78
2021/07/20 06:50:30;;;;;;;8.07;4.37;;;19.30;1.00;;;;;;4957701;28;20471;-79
2021/07/20 06:52:59;;;;;;;6.67;5.13;;;19.40;1.00;;;;;;4958977;28;20460;-79
2021/07/20 06:55:27;;;;;;;5.17;4.03;;;19.40;1.00;;;;;;4960257;28;20452;-79
2021/07/20 06:57:55;;;;;;;7.63;4.00;;;19.40;1.00;;;;;;4969586;28;20444;-80
2021/07/20 07:00:22;;;;;;;6.30;4.80;;;19.50;1.00;;;;;;4956571;28;20504;-82
2021/07/20 07:02:55;;;;;;;5.90;4.00;;;19.50;1.00;;;;;;4962807;28;20460;-82
2021/07/20 07:05:24;;;;;;;7.10;4.00;;;19.60;1.00;;;;;;4965499;28;20409;-82
2021/07/20 07:07:51;;;;;;;6.07;3.57;;;19.60;1.00;;;;;;4963826;28;20433;-80
2021/07/20 07:10:21;;;;;;;5.57;4.07;;;19.70;1.00;;;;;;4927429;28;20563;-78
2021/07/20 07:12:50;;;;;;;6.63;3.87;;;19.70;1.00;;;;;;4952213;28;20483;-79
2021/07/20 07:15:18;;;;;;;8.50;3.87;;;19.80;1.00;;;;;;4954247;28;20500;-78
2021/07/20 07:17:47;;;;;;;5.60;3.27;;;19.90;1.00;;;;;;4957082;28;20447;-79
2021/07/20 07:20:16;;;;;;;6.23;3.90;;;20.00;1.00;;;;;;4959016;28;20831;-78
2021/07/20 07:22:45;;;;;;;5.70;4.70;;;20.20;1.00;;;;;;4956012;28;20571;-79
2021/07/20 07:25:13;;;;;;;5.33;3.53;;;20.40;1.00;;;;;;4953549;28;20478;-79
2021/07/20 07:27:43;;;;;;;4.47;3.40;;;20.60;1.00;;;;;;4954151;28;20952;-80
2021/07/20 07:30:11;;;;;;;4.60;3.13;;;20.80;1.00;;;;;;4959315;28;20464;-82
2021/07/20 07:32:38;;;;;;;9.20;4.70;;;20.90;1.00;;;;;;4967698;28;21004;-81
2021/07/20 07:35:07;;;;;;;9.33;4.23;;;21.00;1.00;;;;;;4965846;28;20512;-81
2021/07/20 07:37:35;;;;;;;5.00;3.90;;;21.10;1.00;;;;;;4969893;28;20456;-80
2021/07/20 07:40:05;;;;;;;6.00;4.47;;;21.10;1.00;;;;;;4964200;28;20449;-82
2021/07/20 07:42:34;;;;;;;5.33;3.20;;;21.10;1.00;;;;;;4969270;28;20516;-82
2021/07/20 07:45:04;;;;;;;5.47;3.67;;;21.00;1.00;;;;;;4960152;28;20464;-77
2021/07/20 07:47:31;;;;;;;5.40;3.50;;;21.00;1.00;;;;;;4948539;28;20476;-76
2021/07/20 07:49:58;;;;;;;28.07;6.77;;;21.00;1.00;;;;;;4948097;28;20453;-77
2021/07/20 07:52:25;;;;;;;5.70;3.50;;;20.90;1.00;;;;;;4943787;28;20455;-78
2021/07/20 07:54:52;;;;;;;7.80;4.90;;;21.00;1.00;;;;;;4951985;28;20469;-76
2021/07/20 07:57:22;;;;;;;5.40;4.00;;;21.10;1.00;;;;;;4949061;28;20518;-78
2021/07/20 07:59:54;;;;;;;5.13;3.23;;;21.20;1.00;;;;;;4954283;28;20984;-78
2021/07/20 08:02:28;;;;;;;8.90;3.87;;;21.50;1.00;;;;;;4953857;28;20518;-76
2021/07/20 08:04:56;;;;;;;4.13;3.60;;;21.70;1.00;;;;;;4947779;28;20466;-78
2021/07/20 08:07:24;;;;;;;4.33;3.63;;;21.60;1.00;;;;;;4956893;28;21079;-77
2021/07/20 08:09:52;;;;;;;5.70;3.37;;;21.50;1.00;;;;;;4951403;28;22378;-77
2021/07/20 08:12:22;;;;;;;4.90;3.60;;;21.50;1.00;;;;;;4951383;28;20438;-77
2021/07/20 08:14:49;;;;;;;4.97;3.93;;;21.40;1.00;;;;;;4953122;28;20558;-79
2021/07/20 08:17:16;;;;;;;4.80;2.43;;;21.40;1.00;;;;;;4953001;28;20988;-77
2021/07/20 08:19:45;;;;;;;5.70;4.20;;;21.50;1.00;;;;;;4954663;28;20472;-79
2021/07/20 08:22:15;;;;;;;3.77;3.03;;;21.60;1.00;;;;;;4953264;28;20453;-79
2021/07/20 08:24:46;;;;;;;7.80;4.07;;;21.90;1.00;;;;;;4953871;28;20526;-80
2021/07/20 08:27:18;;;;;;;8.80;4.50;;;22.10;1.00;;;;;;4953939;28;21791;-78
2021/07/20 08:29:49;;;;;;;5.97;3.67;;;22.10;1.00;;;;;;4949167;28;20571;-79
2021/07/20 08:32:19;;;;;;;7.00;3.80;;;22.10;1.00;;;;;;4952647;28;20478;-78
2021/07/20 08:34:53;;;;;;;4.43;3.70;;;22.00;1.00;;;;;;4950556;28;20453;-77
2021/07/20 08:37:21;;;;;;;3.40;3.07;;;21.90;1.00;;;;;;4950295;28;23502;-77
2021/07/20 08:39:49;;;;;;;6.13;3.80;;;21.70;1.00;;;;;;4949254;28;20457;-78
2021/07/20 08:42:26;;;;;;;6.07;4.20;;;21.60;1.00;;;;;;4959737;28;20512;-77
2021/07/20 08:45:11;;;;;;;6.30;3.73;;;21.40;1.00;;;;;;4967491;28;20433;-78
2021/07/20 08:48:18;;;;;;;4.67;3.43;;;21.50;1.00;;;;;;4964508;28;20566;-77
2021/07/20 08:50:56;;;;;;;12.07;8.43;;;21.70;1.00;;;;;;4953866;28;20478;-79
2021/07/20 08:53:31;;;;;;;7.47;4.90;;;22.00;1.00;;;;;;4960395;28;20243;-80
2021/07/20 08:56:01;;;;;;;3.90;3.37;;;22.00;1.00;;;;;;4963649;28;20460;-80
2021/07/20 08:58:30;;;;;;;3.97;3.47;;;22.10;1.00;;;;;;4964127;28;20482;-79
2021/07/20 09:01:01;;;;;;;3.97;3.43;;;22.20;1.00;;;;;;4960262;28;20435;-78
2021/07/20 09:03:42;;;;;;;3.60;3.30;;;22.20;1.00;;;;;;4953325;28;20542;-78
2021/07/20 09:06:13;;;;;;;4.30;3.30;;;22.30;1.00;;;;;;4941277;28;20458;-79
2021/07/20 09:08:45;;;;;;;5.63;3.97;;;22.50;1.00;;;;;;4956984;28;20608;-79
2021/07/20 09:11:17;;;;;;;5.40;4.10;;;22.70;1.00;;;;;;4950751;28;20514;-79
2021/07/20 09:13:55;;;;;;;4.33;3.83;;;22.80;1.00;;;;;;4959469;28;21405;-78
2021/07/20 09:16:31;;;;;;;4.37;3.27;;;23.30;1.00;;;;;;4960894;28;20565;-79
2021/07/20 09:19:03;;;;;;;6.40;4.17;;;23.60;1.00;;;;;;4955522;28;20432;-78
2021/07/20 09:21:35;;;;;;;4.40;3.63;;;23.60;1.00;;;;;;4956174;28;20572;-78
2021/07/20 09:24:12;;;;;;;4.20;3.17;;;23.50;1.00;;;;;;4974463;23;20631;-72
2021/07/20 09:26:42;;;;;;;5.50;4.27;;;23.30;1.00;;;;;;4968603;28;20446;-74
2021/07/20 09:29:15;;;;;;;4.17;3.77;;;22.90;1.00;;;;;;4961849;28;20551;-72
2021/07/20 09:32:14;;;;;;;4.17;3.20;;;23.00;1.00;;;;;;4965677;28;20474;-73
2021/07/20 09:34:56;;;;;;;4.70;3.50;;;23.20;1.00;;;;;;4964405;28;20442;-73
2021/07/20 09:37:36;;;;;;;5.07;3.70;;;23.20;1.00;;;;;;4943530;28;20927;-73
2021/07/20 09:40:12;;;;;;;4.30;3.80;;;23.10;1.00;;;;;;4946289;28;20451;-73
2021/07/20 09:42:44;;;;;;;6.20;3.33;;;22.90;1.00;;;;;;4943354;28;21960;-74
2021/07/20 09:45:13;;;;;;;8.13;4.83;;;22.90;1.00;;;;;;4942533;28;20535;-73
2021/07/20 09:47:48;;;;;;;5.30;3.80;;;22.90;1.00;;;;;;4949336;28;21570;-73
2021/07/20 09:50:16;;;;;;;5.87;4.07;;;23.00;1.00;;;;;;4944812;28;20439;-78
2021/07/20 09:53:14;;;;;;;4.20;3.77;;;23.10;1.00;;;;;;4943932;28;21420;-75
2021/07/20 09:55:52;;;;;;;6.20;5.10;;;23.30;1.00;;;;;;4949097;28;20552;-75
2021/07/20 09:58:29;;;;;;;4.70;3.57;;;23.40;1.00;;;;;;4951210;28;20455;-75
2021/07/20 10:01:10;;;;;;;4.60;3.93;;;23.70;1.00;;;;;;4948767;28;21329;-76
2021/07/20 10:03:46;;;;;;;4.03;3.17;;;24.20;1.00;;;;;;4946882;28;20474;-74
2021/07/20 10:06:19;;;;;;;6.80;4.13;;;24.70;1.00;;;;;;4951410;28;20516;-74
2021/07/20 10:08:56;;;;;;;4.20;3.70;;;25.00;1.00;;;;;;4942157;28;20417;-73
2021/07/20 10:11:28;;;;;;;4.87;4.20;;;25.20;1.00;;;;;;4950450;28;20575;-74
2021/07/20 10:14:09;;;;;;;3.80;3.50;;;25.30;1.00;;;;;;4949183;28;20635;-73
2021/07/20 10:16:44;;;;;;;3.87;3.57;;;25.30;1.00;;;;;;4948805;28;20448;-73
2021/07/20 10:19:17;;;;;;;5.37;3.83;;;25.10;1.00;;;;;;4949409;28;20487;-74
2021/07/20 10:21:50;;;;;;;5.60;3.83;;;25.00;1.00;;;;;;4949191;28;20447;-73
2021/07/20 10:24:21;;;;;;;3.90;3.60;;;24.90;1.00;;;;;;4947956;28;21677;-74
2021/07/20 10:26:56;;;;;;;6.23;3.40;;;24.80;1.00;;;;;;4952212;28;20458;-73
2021/07/20 10:29:33;;;;;;;6.20;3.90;;;24.40;1.00;;;;;;4951297;28;20466;-75
2021/07/20 10:32:07;;;;;;;5.20;3.93;;;24.10;1.00;;;;;;4947717;28;20508;-74
2021/07/20 10:34:37;;;;;;;3.83;2.70;;;24.00;1.00;;;;;;4940379;28;20486;-72
2021/07/20 10:37:08;;;;;;;4.10;3.10;;;24.00;1.00;;;;;;4941093;28;21115;-74
2021/07/20 10:39:40;;;;;;;4.37;3.73;;;23.80;1.00;;;;;;4944833;28;21334;-75
2021/07/20 10:42:10;;;;;;;4.40;3.37;;;23.70;1.00;;;;;;4944153;28;20468;-74
2021/07/20 10:44:44;;;;;;;5.93;3.77;;;23.70;1.00;;;;;;4939697;28;20488;-74
2021/07/20 10:47:13;;;;;;;5.20;4.00;;;23.80;1.00;;;;;;4947736;28;20454;-73
2021/07/20 10:49:49;;;;;;;4.37;3.30;;;23.90;1.00;;;;;;4945186;28;21810;-74
2021/07/20 10:52:29;;;;;;;5.80;3.73;;;24.00;1.00;;;;;;4941588;28;20559;-74
2021/07/20 10:55:04;;;;;;;5.43;3.80;;;24.10;1.00;;;;;;4947307;28;20461;-74
2021/07/20 10:57:44;;;;;;;4.50;3.70;;;24.20;1.00;;;;;;4942893;28;20451;-74
2021/07/20 11:00:13;;;;;;;6.00;4.13;;;24.30;1.00;;;;;;4943726;28;20454;-75
2021/07/20 11:02:51;;;;;;;6.40;3.47;;;24.50;1.00;;;;;;4944222;28;20468;-73
2021/07/20 11:05:18;;;;;;;5.23;3.70;;;24.50;1.00;;;;;;4954661;28;20506;-73
2021/07/20 11:07:49;;;;;;;5.23;3.27;;;24.50;1.00;;;;;;4945317;28;20449;-71
2021/07/20 11:10:21;;;;;;;4.50;3.40;;;24.40;1.00;;;;;;4948935;28;20549;-73
2021/07/20 11:12:57;;;;;;;7.83;3.77;;;24.20;1.00;;;;;;4945863;28;20490;-72
2021/07/20 11:15:26;;;;;;;7.50;4.00;;;24.20;1.00;;;;;;4945689;28;20448;-71
2021/07/20 11:17:53;;;;;;;6.13;3.90;;;24.20;1.00;;;;;;4942004;28;20432;-72
2021/07/20 11:20:21;;;;;;;5.57;3.10;;;24.10;1.00;;;;;;4943190;28;20429;-73
2021/07/20 11:22:49;;;;;;;5.17;3.60;;;24.20;1.00;;;;;;4943298;28;21686;-73
2021/07/20 11:25:18;;;;;;;5.63;3.93;;;24.30;1.00;;;;;;4943040;28;20443;-73
2021/07/20 11:27:47;;;;;;;5.20;3.40;;;24.30;1.00;;;;;;4942278;28;20441;-73
2021/07/20 11:30:15;;;;;;;5.00;3.33;;;24.90;1.00;;;;;;4940290;28;20456;-72
2021/07/20 11:32:48;;;;;;;6.33;3.50;;;26.40;1.00;;;;;;4940665;28;20478;-73
2021/07/20 11:35:17;;;;;;;6.27;3.40;;;27.80;1.00;;;;;;4940544;28;20466;-71
2021/07/20 11:37:49;;;;;;;5.00;2.93;;;28.80;1.00;;;;;;4941761;28;20448;-72
2021/07/20 11:40:22;;;;;;;5.63;3.30;;;30.60;1.00;;;;;;4938225;28;20848;-73
2021/07/20 11:42:54;;;;;;;6.83;3.20;;;31.60;1.00;;;;;;4942037;28;21369;-73
2021/07/20 11:45:21;;;;;;;6.60;3.23;;;31.90;1.00;;;;;;4938062;28;20472;-75
2021/07/20 11:47:51;;;;;;;3.90;2.67;;;33.10;1.00;;;;;;4940488;28;20437;-74
2021/07/20 11:50:26;;;;;;;3.63;2.70;;;33.70;1.00;;;;;;4941435;28;20459;-73
2021/07/20 11:52:59;;;;;;;5.03;2.90;;;33.90;1.00;;;;;;4938399;28;20880;-72
2021/07/20 11:55:35;;;;;;;4.43;3.13;;;33.10;1.00;;;;;;4942825;28;20505;-73
2021/07/20 11:58:37;;;;;;;4.63;2.70;;;32.20;1.00;;;;;;4938712;28;20473;-73
2021/07/20 12:01:48;;;;;;;7.60;3.50;;;32.20;1.00;;;;;;4942091;28;20607;-73
2021/07/20 12:04:39;;;;;;;6.17;2.80;;;33.00;1.00;;;;;;4938041;28;20466;-72
2021/07/20 12:07:09;;;;;;;5.10;3.30;;;34.00;1.00;;;;;;4942281;28;20459;-75
2021/07/20 12:09:50;;;;;;;6.23;2.73;;;34.50;1.00;;;;;;4943054;28;20464;-74
2021/07/20 12:12:19;;;;;;;5.47;3.17;;;34.10;1.00;;;;;;4944327;28;20477;-74
2021/07/20 12:14:46;;;;;;;3.33;3.03;;;33.30;1.00;;;;;;4939081;28;20660;-73
2021/07/20 12:17:15;;;;;;;7.17;3.67;;;31.70;1.00;;;;;;4949741;28;20467;-74
2021/07/20 12:19:43;;;;;;;7.17;3.37;;;30.20;1.00;;;;;;4943908;28;21142;-74
2021/07/20 12:22:11;;;;;;;4.30;3.87;;;28.40;1.00;;;;;;4942972;28;21362;-73
2021/07/20 12:24:38;;;;;;;5.73;3.43;;;27.20;1.00;;;;;;4952388;28;20450;-73
2021/07/20 12:27:07;;;;;;;4.33;3.80;;;26.10;1.00;;;;;;4947868;28;21490;-77
2021/07/20 12:29:39;;;;;;;5.83;4.20;;;25.30;1.00;;;;;;4952067;28;20460;-74
2021/07/20 12:32:12;;;;;;;5.10;3.30;;;24.60;1.00;;;;;;4951363;28;20461;-73
2021/07/20 12:34:40;;;;;;;4.20;3.80;;;23.80;1.00;;;;;;4946772;28;20482;-75
2021/07/20 12:37:09;;;;;;;6.93;4.50;;;23.30;1.00;;;;;;4945879;28;20452;-75
2021/07/20 12:39:40;;;;;;;5.03;4.07;;;23.10;1.00;;;;;;4939581;28;20506;-74
2021/07/20 12:42:09;;;;;;;5.50;4.40;;;23.00;1.00;;;;;;4944509;28;20474;-73
2021/07/20 12:44:37;;;;;;;5.37;4.00;;;23.00;1.00;;;;;;4945495;28;20424;-76
2021/07/20 12:47:09;;;;;;;6.27;4.07;;;23.00;1.00;;;;;;4946891;28;20456;-76
2021/07/20 12:49:37;;;;;;;8.17;3.67;;;23.20;1.00;;;;;;4950191;28;20484;-74
2021/07/20 12:52:05;;;;;;;4.10;3.80;;;23.40;1.00;;;;;;4942093;28;20476;-74
2021/07/20 12:54:37;;;;;;;4.10;3.60;;;23.60;1.00;;;;;;4942930;28;20729;-75
2021/07/20 12:57:05;;;;;;;4.13;3.67;;;23.90;1.00;;;;;;4945207;28;20455;-74
2021/07/20 12:59:35;;;;;;;6.30;3.67;;;24.10;1.00;;;;;;4944902;28;20439;-74
2021/07/20 13:02:04;;;;;;;4.17;3.70;;;24.20;1.00;;;;;;4948883;28;20480;-74
2021/07/20 13:04:32;;;;;;;3.80;3.30;;;24.30;1.00;;;;;;4947806;28;20482;-73
2021/07/20 13:07:00;;;;;;;4.23;3.80;;;24.30;1.00;;;;;;4945870;28;20428;-74
2021/07/20 13:09:28;;;;;;;5.53;3.70;;;24.20;1.00;;;;;;4943267;28;20700;-74
2021/07/20 13:11:57;;;;;;;5.67;4.03;;;24.20;1.00;;;;;;4952128;28;20961;-74
2021/07/20 13:14:23;;;;;;;6.10;5.60;;;24.20;1.00;;;;;;4950476;28;20582;-75
2021/07/20 13:16:53;;;;;;;4.43;4.00;;;24.10;1.00;;;;;;4957470;28;20575;-74